createdAt,value
2023-03-10T00:01:17.529Z,13.51
2023-03-10T00:03:45.396Z,13.46
2023-03-10T00:06:15.305Z,13.50
2023-03-10T00:08:43.910Z,13.53
2023-03-10T00:11:12.281Z,13.48
2023-03-10T00:13:40.107Z,13.60
2023-03-10T00:16:08.957Z,13.51
2023-03-10T00:18:37.966Z,13.46
2023-03-10T00:21:06.174Z,13.38
2023-03-10T00:23:36.287Z,13.37
2023-03-10T00:26:05.127Z,13.30
2023-03-10T00:28:32.932Z,13.27
2023-03-10T00:31:02.304Z,13.26
2023-03-10T00:33:31.098Z,13.34
2023-03-10T00:36:05.406Z,13.34
2023-03-10T00:38:33.910Z,13.41
2023-03-10T00:41:02.528Z,13.36
2023-03-10T00:43:30.745Z,13.40
2023-03-10T00:45:58.618Z,13.33
2023-03-10T00:48:26.908Z,13.33
2023-03-10T00:50:54.892Z,13.33
2023-03-10T00:53:24.220Z,13.27
2023-03-10T00:55:59.438Z,13.27
2023-03-10T00:58:27.197Z,13.31
2023-03-10T01:00:56.455Z,13.23
2023-03-10T01:03:25.294Z,13.22
2023-03-10T01:05:53.761Z,13.28
2023-03-10T01:08:23.654Z,13.31
2023-03-10T01:10:52.334Z,13.31
2023-03-10T01:13:21.024Z,13.22
2023-03-10T01:15:48.938Z,13.20
2023-03-10T01:18:17.737Z,13.21
2023-03-10T01:20:45.722Z,13.17
2023-03-10T01:23:16.132Z,13.24
2023-03-10T01:25:45.291Z,13.35
2023-03-10T01:28:13.631Z,13.27
2023-03-10T01:30:41.707Z,13.27
2023-03-10T01:33:10.668Z,13.18
2023-03-10T01:35:38.724Z,13.16
2023-03-10T01:38:06.863Z,13.15
2023-03-10T01:40:35.092Z,13.12
2023-03-10T01:43:35.925Z,13.07
2023-03-10T01:46:43.897Z,13.11
2023-03-10T01:49:17.022Z,13.02
2023-03-10T01:51:48.841Z,13.01
2023-03-10T01:54:21.120Z,12.91
2023-03-10T01:56:50.675Z,12.79
2023-03-10T01:59:20.573Z,12.71
2023-03-10T02:01:49.498Z,12.71
2023-03-10T02:04:21.185Z,12.62
2023-03-10T02:06:49.626Z,12.52
2023-03-10T02:09:18.316Z,12.52
2023-03-10T02:11:48.209Z,12.51
2023-03-10T02:14:16.331Z,12.51
2023-03-10T02:16:46.110Z,12.47
2023-03-10T02:19:24.061Z,12.54
2023-03-10T02:22:01.754Z,12.58
2023-03-10T02:24:37.447Z,12.51
2023-03-10T02:27:14.297Z,12.58
2023-03-10T02:29:58.534Z,12.54
2023-03-10T02:32:28.374Z,12.52
2023-03-10T02:34:56.095Z,12.53
2023-03-10T02:37:25.715Z,12.47
2023-03-10T02:39:53.505Z,12.46
2023-03-10T02:42:25.666Z,12.48
2023-03-10T02:44:54.194Z,12.50
2023-03-10T02:47:22.031Z,12.49
2023-03-10T02:49:50.268Z,12.51
2023-03-10T02:52:26.998Z,12.48
2023-03-10T02:54:54.786Z,12.36
2023-03-10T02:57:23.906Z,12.41
2023-03-10T02:59:51.607Z,12.50
2023-03-10T03:02:19.373Z,12.54
2023-03-10T03:04:47.263Z,12.53
2023-03-10T03:07:14.987Z,12.54
2023-03-10T03:09:42.704Z,12.54
2023-03-10T03:12:10.940Z,12.59
2023-03-10T03:14:40.047Z,12.52
2023-03-10T03:17:07.732Z,12.52
2023-03-10T03:19:35.424Z,12.52
2023-03-10T03:22:03.073Z,12.56
2023-03-10T03:24:32.088Z,12.53
2023-03-10T03:27:00.094Z,12.56
2023-03-10T03:29:27.760Z,12.58
2023-03-10T03:31:56.971Z,12.66
2023-03-10T03:34:24.667Z,12.65
2023-03-10T03:36:52.297Z,12.57
2023-03-10T03:39:20.057Z,12.59
2023-03-10T03:41:49.001Z,12.57
2023-03-10T03:44:16.713Z,12.61
2023-03-10T03:46:44.411Z,12.62
2023-03-10T03:49:13.467Z,12.56
2023-03-10T03:51:41.424Z,12.66
2023-03-10T03:54:09.100Z,12.72
2023-03-10T03:56:36.866Z,12.69
2023-03-10T03:59:05.101Z,12.69
2023-03-10T04:01:32.787Z,12.65
2023-03-10T04:04:00.473Z,12.66
2023-03-10T04:06:29.586Z,12.58
2023-03-10T04:08:57.439Z,12.59
2023-03-10T04:11:25.135Z,12.52
2023-03-10T04:13:52.797Z,12.45
2023-03-10T04:16:20.538Z,12.46
2023-03-10T04:18:48.242Z,12.48
2023-03-10T04:21:17.588Z,12.51
2023-03-10T04:23:46.840Z,12.54
2023-03-10T04:26:15.175Z,12.62
2023-03-10T04:28:42.820Z,12.61
2023-03-10T04:31:15.928Z,12.66
2023-03-10T04:33:43.685Z,12.75
2023-03-10T04:36:12.260Z,12.81
2023-03-10T04:38:41.195Z,12.66
2023-03-10T04:41:10.333Z,12.55
2023-03-10T04:43:39.131Z,12.49
2023-03-10T04:46:08.107Z,12.48
2023-03-10T04:48:35.856Z,12.47
2023-03-10T04:51:05.572Z,12.44
2023-03-10T04:53:34.257Z,12.43
2023-03-10T04:56:03.667Z,12.41
2023-03-10T04:58:32.810Z,12.42
2023-03-10T05:01:03.582Z,12.33
2023-03-10T05:03:31.569Z,12.19
2023-03-10T05:05:59.292Z,12.08
2023-03-10T05:08:27.052Z,11.94
2023-03-10T05:10:54.728Z,11.91
2023-03-10T05:13:22.415Z,11.79
2023-03-10T05:15:51.623Z,11.76
2023-03-10T05:18:19.577Z,11.73
2023-03-10T05:20:53.754Z,11.66
2023-03-10T05:23:21.736Z,11.64
2023-03-10T05:25:49.606Z,11.60
2023-03-10T05:28:17.802Z,11.66
2023-03-10T05:30:45.624Z,11.60
2023-03-10T05:33:16.172Z,11.62
2023-03-10T05:35:44.014Z,11.63
2023-03-10T05:38:11.701Z,11.68
2023-03-10T05:40:41.384Z,11.74
2023-03-10T05:43:09.197Z,11.67
2023-03-10T05:45:38.691Z,11.70
2023-03-10T05:48:06.782Z,11.64
2023-03-10T05:50:35.787Z,11.69
2023-03-10T05:53:03.416Z,11.71
2023-03-10T05:55:31.131Z,11.64
2023-03-10T05:57:58.916Z,11.60
2023-03-10T06:00:27.348Z,11.62
2023-03-10T06:02:55.055Z,11.72
2023-03-10T06:05:22.800Z,11.80
2023-03-10T06:07:52.168Z,11.78
2023-03-10T06:10:20.080Z,11.70
2023-03-10T06:12:47.772Z,11.69
2023-03-10T06:15:15.699Z,11.66
2023-03-10T06:17:43.457Z,11.60
2023-03-10T06:20:11.844Z,11.65
2023-03-10T06:22:39.557Z,11.58
2023-03-10T06:25:10.173Z,11.61
2023-03-10T06:27:37.903Z,11.66
2023-03-10T06:30:06.728Z,11.75
2023-03-10T06:32:35.915Z,11.76
2023-03-10T06:35:04.684Z,11.80
2023-03-10T06:37:32.317Z,11.87
2023-03-10T06:39:59.940Z,11.87
2023-03-10T06:42:29.047Z,11.92
2023-03-10T06:44:56.880Z,11.84
2023-03-10T06:47:24.563Z,11.91
2023-03-10T06:49:54.681Z,11.96
2023-03-10T06:52:22.515Z,11.99
2023-03-10T06:54:50.255Z,12.03
2023-03-10T06:57:20.814Z,12.10
2023-03-10T06:59:50.026Z,12.17
2023-03-10T07:02:19.800Z,12.21
2023-03-10T07:04:47.724Z,12.27
2023-03-10T07:07:15.778Z,12.30
2023-03-10T07:09:43.450Z,12.34
2023-03-10T07:12:11.328Z,12.36
2023-03-10T07:14:39.031Z,12.33
2023-03-10T07:17:08.182Z,12.33
2023-03-10T07:19:36.016Z,12.33
2023-03-10T07:22:03.731Z,12.36
2023-03-10T07:24:31.462Z,12.36
2023-03-10T07:27:00.247Z,12.36
2023-03-10T07:29:28.093Z,12.31
2023-03-10T07:31:55.841Z,12.30
2023-03-10T07:34:24.856Z,12.38
2023-03-10T07:36:52.530Z,12.48
2023-03-10T07:39:21.346Z,12.54
2023-03-10T07:41:49.134Z,12.53
2023-03-10T07:44:16.792Z,12.59
2023-03-10T07:46:44.542Z,12.58
2023-03-10T07:49:12.233Z,12.59
2023-03-10T07:51:41.293Z,12.62
2023-03-10T07:54:09.031Z,12.60
2023-03-10T07:56:36.701Z,12.62
2023-03-10T07:59:04.775Z,12.62
2023-03-10T08:01:32.510Z,12.65
2023-03-10T08:04:00.285Z,12.62
2023-03-10T08:06:30.776Z,12.61
2023-03-10T08:08:59.855Z,12.63
2023-03-10T08:11:27.693Z,12.67
2023-03-10T08:13:55.511Z,12.68
2023-03-10T08:16:23.981Z,12.66
2023-03-10T08:18:53.335Z,12.64
2023-03-10T08:21:21.157Z,12.68
2023-03-10T08:23:48.907Z,12.74
2023-03-10T08:26:19.880Z,12.80
2023-03-10T08:28:48.260Z,12.97
2023-03-10T08:31:17.993Z,13.09
2023-03-10T08:33:46.594Z,13.24
2023-03-10T08:36:16.152Z,13.30
2023-03-10T08:38:45.272Z,13.25
2023-03-10T08:41:14.844Z,13.07
2023-03-10T08:43:46.086Z,12.98
2023-03-10T08:46:14.969Z,12.88
2023-03-10T08:48:43.100Z,12.93
2023-03-10T08:51:13.798Z,12.90
2023-03-10T08:53:43.847Z,12.75
2023-03-10T08:56:11.531Z,13.18
2023-03-10T08:58:39.410Z,14.76
2023-03-10T09:01:08.894Z,16.39
2023-03-10T09:03:37.137Z,17.44
2023-03-10T09:06:05.321Z,17.63
2023-03-10T09:08:33.523Z,16.95
2023-03-10T09:11:01.317Z,16.24
2023-03-10T09:13:29.037Z,15.72
2023-03-10T09:15:56.758Z,15.48
2023-03-10T09:18:26.329Z,15.11
2023-03-10T09:20:54.189Z,14.67
2023-03-10T09:23:21.871Z,14.37
2023-03-10T09:25:49.577Z,14.12
2023-03-10T09:28:18.748Z,13.79
2023-03-10T09:30:48.189Z,13.62
2023-03-10T09:33:18.257Z,13.48
2023-03-10T09:36:06.099Z,13.33
2023-03-10T09:38:34.715Z,13.15
2023-03-10T09:41:11.725Z,13.06
2023-03-10T09:43:45.083Z,13.05
2023-03-10T09:46:21.899Z,13.08
2023-03-10T09:48:57.644Z,13.09
2023-03-10T09:51:29.591Z,13.09
2023-03-10T09:54:14.380Z,13.00
2023-03-10T09:56:42.138Z,12.99
2023-03-10T09:59:16.130Z,13.09
2023-03-10T10:01:47.751Z,13.23
2023-03-10T10:04:21.423Z,13.38
2023-03-10T10:06:51.185Z,13.51
2023-03-10T10:09:26.301Z,13.64
2023-03-10T10:11:53.984Z,13.64
2023-03-10T10:14:30.042Z,13.52
2023-03-10T10:17:08.135Z,13.56
2023-03-10T10:19:39.378Z,13.57
2023-03-10T10:22:14.707Z,13.51
2023-03-10T10:24:42.423Z,13.49
2023-03-10T10:27:10.368Z,13.60
2023-03-10T10:29:42.344Z,13.76
2023-03-10T10:32:12.602Z,13.69
2023-03-10T10:34:42.555Z,13.47
2023-03-10T10:37:28.612Z,13.65
2023-03-10T10:39:57.839Z,13.79
2023-03-10T10:42:27.913Z,14.07
2023-03-10T10:44:57.821Z,14.58
2023-03-10T10:47:28.907Z,14.57
2023-03-10T10:50:09.482Z,14.33
2023-03-10T10:52:38.596Z,14.14
2023-03-10T10:55:07.231Z,14.05
2023-03-10T10:57:38.693Z,13.99
2023-03-10T11:00:25.171Z,14.06
2023-03-10T11:02:53.142Z,13.85
2023-03-10T11:05:23.928Z,13.71
2023-03-10T11:07:53.296Z,13.52
2023-03-10T11:10:27.485Z,13.53
2023-03-10T11:13:01.577Z,13.29
2023-03-10T11:15:33.849Z,13.34
2023-03-10T11:18:09.109Z,13.39
2023-03-10T11:20:43.671Z,13.41
2023-03-10T11:23:23.540Z,13.38
2023-03-10T11:25:59.166Z,13.32
2023-03-10T11:28:39.387Z,13.40
2023-03-10T11:31:18.647Z,13.36
2023-03-10T11:33:56.187Z,13.37
2023-03-10T11:36:46.055Z,13.37
2023-03-10T11:39:29.301Z,13.38
2023-03-10T11:42:04.097Z,13.37
2023-03-10T11:44:39.590Z,13.28
2023-03-10T11:47:17.025Z,13.15
2023-03-10T11:49:50.100Z,13.06
2023-03-10T11:52:20.422Z,13.01
2023-03-10T11:54:55.397Z,13.01
2023-03-10T11:57:26.704Z,13.01
2023-03-10T11:59:57.823Z,12.98
2023-03-10T12:02:30.299Z,13.02
2023-03-10T12:05:02.211Z,13.08
2023-03-10T12:07:35.609Z,13.19
2023-03-10T12:10:13.493Z,13.23
2023-03-10T12:12:43.386Z,13.23
2023-03-10T12:15:19.080Z,13.02
2023-03-10T12:17:49.135Z,13.03
2023-03-10T12:20:29.264Z,13.00
2023-03-10T12:22:58.192Z,13.02
2023-03-10T12:25:47.589Z,12.99
2023-03-10T12:28:27.415Z,12.95
2023-03-10T12:30:57.652Z,12.95
2023-03-10T12:34:00.758Z,12.83
2023-03-10T12:36:39.499Z,12.86
2023-03-10T12:39:32.529Z,12.76
2023-03-10T12:42:02.483Z,12.75
2023-03-10T12:44:42.912Z,12.75
2023-03-10T12:47:31.556Z,12.80
2023-03-10T12:50:06.296Z,12.88
2023-03-10T12:52:48.101Z,12.91
2023-03-10T12:55:20.977Z,12.91
2023-03-10T12:58:14.626Z,12.96
2023-03-10T13:00:49.320Z,12.86
2023-03-10T13:03:27.669Z,12.79
2023-03-10T13:06:00.681Z,12.71
2023-03-10T13:08:36.061Z,12.67
2023-03-10T13:11:04.681Z,12.57
2023-03-10T13:13:37.093Z,12.61
2023-03-10T13:16:07.457Z,12.63
2023-03-10T13:18:36.443Z,12.65
2023-03-10T13:21:04.066Z,12.71
2023-03-10T13:23:34.377Z,12.79
2023-03-10T13:26:03.916Z,12.86
2023-03-10T13:28:35.449Z,12.89
2023-03-10T13:31:18.263Z,12.88
2023-03-10T13:33:53.386Z,12.86
2023-03-10T13:36:23.400Z,12.65
2023-03-10T13:38:53.049Z,12.68
2023-03-10T13:41:20.717Z,12.73
2023-03-10T13:43:53.146Z,12.74
2023-03-10T13:46:26.076Z,12.78
2023-03-10T13:48:55.377Z,12.84
2023-03-10T13:51:25.481Z,12.82
2023-03-10T13:53:58.186Z,12.82
2023-03-10T13:56:27.562Z,12.76
2023-03-10T13:58:59.215Z,12.75
2023-03-10T14:01:30.293Z,12.71
2023-03-10T14:04:00.137Z,12.72
2023-03-10T14:06:32.560Z,12.71
2023-03-10T14:09:14.722Z,12.75
2023-03-10T14:11:44.862Z,12.74
2023-03-10T14:14:26.436Z,12.81
2023-03-10T14:16:56.269Z,13.10
2023-03-10T14:19:54.120Z,13.16
2023-03-10T14:22:29.074Z,13.32
2023-03-10T14:24:57.450Z,13.21
2023-03-10T14:27:25.723Z,13.06
2023-03-10T14:29:57.589Z,13.01
2023-03-10T14:32:25.870Z,12.95
2023-03-10T14:34:53.612Z,12.88
2023-03-10T14:37:21.422Z,12.84
2023-03-10T14:39:49.056Z,12.85
2023-03-10T14:42:21.209Z,12.90
2023-03-10T14:44:50.360Z,13.04
2023-03-10T14:47:19.571Z,13.10
2023-03-10T14:49:47.422Z,12.93
2023-03-10T14:52:17.785Z,12.94
2023-03-10T14:54:45.922Z,12.94
2023-03-10T14:57:20.866Z,13.16
2023-03-10T14:59:48.670Z,13.24
2023-03-10T15:02:21.800Z,13.37
2023-03-10T15:04:49.602Z,13.46
2023-03-10T15:07:17.632Z,13.53
2023-03-10T15:09:45.638Z,13.71
2023-03-10T15:12:15.221Z,13.73
2023-03-10T15:14:52.455Z,13.77
2023-03-10T15:17:21.717Z,13.73
2023-03-10T15:19:49.359Z,13.77
2023-03-10T15:22:17.041Z,13.76
2023-03-10T15:24:44.643Z,13.60
2023-03-10T15:27:13.380Z,13.48
2023-03-10T15:29:43.093Z,13.34
2023-03-10T15:32:10.814Z,13.25
2023-03-10T15:34:39.871Z,13.03
2023-03-10T15:37:08.638Z,12.99
2023-03-10T15:39:37.336Z,12.88
2023-03-10T15:42:05.227Z,12.63
2023-03-10T15:44:32.957Z,12.55
2023-03-10T15:47:00.666Z,12.49
2023-03-10T15:49:28.365Z,12.42
2023-03-10T15:51:57.596Z,12.53
2023-03-10T15:54:25.574Z,12.51
2023-03-10T15:56:53.200Z,12.61
2023-03-10T15:59:21.312Z,12.70
2023-03-10T16:01:49.302Z,12.57
2023-03-10T16:04:17.054Z,12.54
2023-03-10T16:06:44.805Z,12.69
2023-03-10T16:09:13.792Z,12.73
2023-03-10T16:11:41.560Z,12.70
2023-03-10T16:14:09.246Z,12.62
2023-03-10T16:16:37.075Z,12.63
2023-03-10T16:19:04.880Z,12.59
2023-03-10T16:21:32.688Z,12.70
2023-03-10T16:24:00.428Z,12.70
2023-03-10T16:26:29.689Z,12.37
2023-03-10T16:28:57.435Z,12.37
2023-03-10T16:31:27.442Z,12.31
2023-03-10T16:33:56.042Z,12.26
2023-03-10T16:36:25.752Z,12.16
2023-03-10T16:38:54.517Z,12.09
2023-03-10T16:41:23.262Z,12.10
2023-03-10T16:43:54.545Z,11.96
2023-03-10T16:46:25.878Z,11.74
2023-03-10T16:48:55.058Z,11.66
2023-03-10T16:51:28.225Z,11.55
2023-03-10T16:54:00.776Z,11.45
2023-03-10T16:56:29.795Z,11.34
2023-03-10T16:58:59.215Z,11.32
2023-03-10T17:01:27.901Z,11.21
2023-03-10T17:03:56.051Z,11.19
2023-03-10T17:06:25.908Z,11.21
2023-03-10T17:08:54.771Z,11.24
2023-03-10T17:11:25.411Z,11.17
2023-03-10T17:13:54.730Z,11.16
2023-03-10T17:16:28.203Z,11.13
2023-03-10T17:18:57.019Z,11.16
2023-03-10T17:21:29.877Z,11.18
2023-03-10T17:23:57.546Z,11.17
2023-03-10T17:26:25.676Z,11.09
2023-03-10T17:28:53.492Z,11.02
2023-03-10T17:31:27.024Z,10.93
2023-03-10T17:33:56.260Z,10.88
2023-03-10T17:36:24.125Z,10.82
2023-03-10T17:38:53.548Z,10.76
2023-03-10T17:41:21.480Z,10.80
2023-03-10T17:43:49.208Z,10.78
2023-03-10T17:46:18.429Z,10.76
2023-03-10T17:48:48.030Z,10.60
2023-03-10T17:51:17.196Z,10.55
2023-03-10T17:53:45.135Z,10.59
2023-03-10T17:56:14.069Z,10.66
2023-03-10T17:58:41.727Z,10.66
2023-03-10T18:01:10.519Z,10.53
2023-03-10T18:03:38.300Z,10.45
2023-03-10T18:06:13.856Z,10.37
2023-03-10T18:08:41.638Z,10.37
2023-03-10T18:11:10.127Z,10.35
2023-03-10T18:13:38.181Z,10.32
2023-03-10T18:16:07.063Z,10.24
2023-03-10T18:18:35.116Z,10.18
2023-03-10T18:21:02.809Z,10.26
2023-03-10T18:23:31.816Z,10.26
2023-03-10T18:25:59.869Z,10.17
2023-03-10T18:28:27.551Z,10.13
2023-03-10T18:30:55.256Z,10.03
2023-03-10T18:33:22.988Z,9.96
2023-03-10T18:35:50.662Z,9.90
2023-03-10T18:38:19.215Z,9.89
2023-03-10T18:40:48.625Z,9.98
2023-03-10T18:43:16.280Z,10.09
2023-03-10T18:45:44.746Z,9.98
2023-03-10T18:48:12.383Z,10.01
2023-03-10T18:50:40.127Z,9.74
2023-03-10T18:53:07.802Z,9.63
2023-03-10T18:55:35.470Z,9.52
2023-03-10T18:58:04.957Z,9.47
2023-03-10T19:00:32.851Z,9.27
2023-03-10T19:03:03.266Z,9.19
2023-03-10T19:05:30.983Z,8.95
2023-03-10T19:07:58.862Z,9.02
2023-03-10T19:10:32.826Z,9.02
2023-03-10T19:13:00.697Z,8.99
2023-03-10T19:15:29.888Z,8.96
2023-03-10T19:17:57.715Z,8.87
2023-03-10T19:20:25.658Z,8.92
2023-03-10T19:22:53.509Z,8.93
2023-03-10T19:25:23.190Z,8.97
2023-03-10T19:27:50.912Z,9.03
2023-03-10T19:30:21.086Z,8.99
2023-03-10T19:32:50.364Z,8.89
2023-03-10T19:35:19.079Z,8.95
2023-03-10T19:37:47.235Z,8.97
2023-03-10T19:40:18.177Z,8.97
2023-03-10T19:42:46.713Z,8.86
2023-03-10T19:45:16.387Z,8.81
2023-03-10T19:47:45.311Z,8.82
2023-03-10T19:50:16.908Z,8.75
2023-03-10T19:52:45.274Z,8.78
2023-03-10T19:55:17.155Z,8.65
2023-03-10T19:57:44.924Z,8.63
2023-03-10T20:00:16.282Z,8.68
2023-03-10T20:02:45.616Z,8.74
2023-03-10T20:05:16.002Z,8.73
2023-03-10T20:07:46.473Z,8.67
2023-03-10T20:10:15.376Z,8.65
2023-03-10T20:12:43.380Z,8.66
2023-03-10T20:15:11.901Z,8.68
2023-03-10T20:17:39.831Z,8.68
2023-03-10T20:20:10.585Z,8.70
2023-03-10T20:22:41.864Z,8.61
2023-03-10T20:25:11.759Z,8.62
2023-03-10T20:27:39.505Z,8.61
2023-03-10T20:30:09.419Z,8.51
2023-03-10T20:32:37.531Z,8.50
2023-03-10T20:35:06.472Z,8.47
2023-03-10T20:37:35.829Z,8.35
2023-03-10T20:40:06.969Z,8.17
2023-03-10T20:42:35.218Z,8.16
2023-03-10T20:45:03.505Z,8.21
2023-03-10T20:47:31.232Z,8.28
2023-03-10T20:49:59.694Z,8.29
2023-03-10T20:52:27.590Z,8.29
2023-03-10T20:54:55.461Z,8.37
2023-03-10T20:57:24.645Z,8.34
2023-03-10T20:59:52.558Z,8.34
2023-03-10T21:02:20.376Z,8.33
2023-03-10T21:04:49.105Z,8.33
2023-03-10T21:07:16.986Z,8.29
2023-03-10T21:09:45.424Z,8.20
2023-03-10T21:12:18.573Z,8.04
2023-03-10T21:14:47.798Z,8.07
2023-03-10T21:17:15.607Z,8.11
2023-03-10T21:19:43.658Z,8.05
2023-03-10T21:22:11.456Z,8.05
2023-03-10T21:24:39.347Z,8.04
2023-03-10T21:27:07.205Z,8.07
2023-03-10T21:29:36.745Z,8.07
2023-03-10T21:32:06.054Z,8.11
2023-03-10T21:34:33.853Z,8.08
2023-03-10T21:37:01.917Z,8.15
2023-03-10T21:39:29.697Z,8.11
2023-03-10T21:41:57.457Z,8.07
2023-03-10T21:44:25.255Z,8.09
2023-03-10T21:46:52.993Z,8.08
2023-03-10T21:49:22.192Z,8.08
2023-03-10T21:51:50.399Z,8.07
2023-03-10T21:54:18.268Z,8.00
2023-03-10T21:56:46.075Z,8.00
2023-03-10T21:59:14.361Z,7.96
2023-03-10T22:01:42.214Z,7.98
2023-03-10T22:04:12.434Z,7.99
2023-03-10T22:06:41.618Z,7.96
2023-03-10T22:09:09.370Z,7.88
2023-03-10T22:11:37.712Z,7.86
2023-03-10T22:14:06.204Z,7.85
2023-03-10T22:16:33.960Z,7.92
2023-03-10T22:19:01.754Z,7.88
2023-03-10T22:21:29.538Z,7.90
2023-03-10T22:23:59.930Z,7.92
2023-03-10T22:26:28.075Z,7.89
2023-03-10T22:28:55.798Z,7.84
2023-03-10T22:31:23.778Z,7.77
2023-03-10T22:33:51.682Z,7.69
2023-03-10T22:36:19.509Z,7.72
2023-03-10T22:38:47.239Z,7.62
2023-03-10T22:41:16.420Z,7.54
2023-03-10T22:43:44.223Z,7.55
2023-03-10T22:46:13.981Z,7.56
2023-03-10T22:48:42.850Z,7.60
2023-03-10T22:51:13.393Z,7.62
2023-03-10T22:53:41.342Z,7.57
2023-03-10T22:56:09.450Z,7.56
2023-03-10T22:58:38.651Z,7.53
2023-03-10T23:01:06.622Z,7.52
2023-03-10T23:03:35.151Z,7.59
2023-03-10T23:06:05.033Z,7.53
2023-03-10T23:08:32.864Z,7.54
2023-03-10T23:11:00.634Z,7.49
2023-03-10T23:13:28.366Z,7.43
2023-03-10T23:15:59.561Z,7.43
2023-03-10T23:18:27.757Z,7.24
2023-03-10T23:20:55.604Z,7.16
2023-03-10T23:23:23.313Z,7.09
2023-03-10T23:25:51.939Z,7.05
2023-03-10T23:28:21.186Z,6.99
2023-03-10T23:30:50.292Z,6.92
2023-03-10T23:33:21.594Z,6.87
2023-03-10T23:35:53.927Z,6.83
2023-03-10T23:38:23.020Z,6.79
2023-03-10T23:40:51.077Z,6.71
2023-03-10T23:43:18.850Z,6.68
2023-03-10T23:45:47.026Z,6.66
2023-03-10T23:48:17.143Z,6.87
2023-03-10T23:50:47.868Z,7.04
2023-03-10T23:53:17.121Z,7.00
2023-03-10T23:55:46.710Z,6.82
2023-03-10T23:58:16.740Z,6.74
